createdAt,value
2018-12-30T00:05:23.428Z,72.59
2018-12-30T00:07:51.927Z,72.95
2018-12-30T00:10:22.054Z,73.30
2018-12-30T00:12:52.177Z,73.64
2018-12-30T00:17:56.737Z,74.10
2018-12-30T00:20:25.213Z,74.42
2018-12-30T00:22:53.612Z,74.76
2018-12-30T00:25:22.012Z,74.94
2018-12-30T00:27:52.174Z,75.42
2018-12-30T00:30:20.570Z,75.46
2018-12-30T00:32:48.958Z,75.52
2018-12-30T00:37:51.243Z,75.89
2018-12-30T00:42:55.495Z,76.30
2018-12-30T00:45:23.988Z,76.34
2018-12-30T00:47:52.397Z,76.45
2018-12-30T00:50:20.885Z,76.68
2018-12-30T00:52:49.495Z,76.71
2018-12-30T00:55:17.883Z,76.85
2018-12-30T00:57:46.286Z,77.02
2018-12-30T01:02:48.423Z,77.23
2018-12-30T01:05:16.824Z,77.33
2018-12-30T01:07:45.239Z,77.64
2018-12-30T01:10:13.705Z,77.52
2018-12-30T01:12:42.101Z,77.57
2018-12-30T01:15:10.536Z,77.54
2018-12-30T01:17:38.926Z,77.60
2018-12-30T01:20:07.320Z,77.71
2018-12-30T01:22:35.751Z,77.90
2018-12-30T01:25:04.287Z,77.97
2018-12-30T01:27:32.696Z,78.05
2018-12-30T01:30:01.183Z,78.20
2018-12-30T01:32:29.577Z,78.18
2018-12-30T01:34:59.698Z,78.34
2018-12-30T01:37:28.197Z,78.44
2018-12-30T01:39:56.616Z,78.37
2018-12-30T01:42:25.012Z,78.37
2018-12-30T01:44:53.537Z,78.45
2018-12-30T01:47:21.940Z,78.64
2018-12-30T01:49:50.325Z,78.74
2018-12-30T01:52:18.765Z,78.78
2018-12-30T01:54:47.164Z,78.73
2018-12-30T01:57:15.556Z,78.64
2018-12-30T01:59:44.061Z,78.56
2018-12-30T02:02:16.475Z,78.48
2018-12-30T02:04:44.877Z,78.49
2018-12-30T02:07:13.408Z,78.41
2018-12-30T02:09:41.801Z,78.46
2018-12-30T02:12:10.196Z,78.47
2018-12-30T02:14:38.775Z,78.40
2018-12-30T02:17:18.814Z,78.39
2018-12-30T02:19:47.484Z,78.38
2018-12-30T02:22:15.873Z,78.34
2018-12-30T02:24:45.985Z,78.31
2018-12-30T02:27:14.495Z,78.24
2018-12-30T02:29:42.886Z,78.36
2018-12-30T02:32:11.417Z,78.41
2018-12-30T02:37:13.959Z,78.24
2018-12-30T02:39:42.330Z,78.26
2018-12-30T02:42:10.816Z,78.27
2018-12-30T02:47:33.852Z,78.28
2018-12-30T02:50:02.249Z,78.12
2018-12-30T02:52:30.636Z,78.14
2018-12-30T02:57:34.283Z,77.95
2018-12-30T03:00:02.669Z,77.89
2018-12-30T03:02:31.068Z,77.86
2018-12-30T03:04:59.703Z,77.80
2018-12-30T03:07:28.092Z,77.82
2018-12-30T03:09:56.485Z,77.81
2018-12-30T03:12:24.950Z,77.76
2018-12-30T03:14:53.348Z,77.86
2018-12-30T03:17:21.743Z,77.94
2018-12-30T03:19:50.293Z,77.98
2018-12-30T03:22:18.676Z,77.91
2018-12-30T03:24:47.067Z,77.87
2018-12-30T03:27:55.446Z,77.83
2018-12-30T03:30:23.844Z,77.84
2018-12-30T03:32:52.232Z,77.70
2018-12-30T03:35:20.654Z,77.61
2018-12-30T03:37:49.046Z,77.50
2018-12-30T03:40:17.441Z,77.38
2018-12-30T03:42:45.881Z,77.40
2018-12-30T03:45:14.277Z,77.36
2018-12-30T03:47:42.682Z,77.29
2018-12-30T03:50:11.123Z,77.27
2018-12-30T03:52:39.582Z,77.21
2018-12-30T03:55:07.977Z,77.16
2018-12-30T04:00:10.429Z,77.35
2018-12-30T04:05:12.716Z,77.50
2018-12-30T04:07:41.113Z,77.50
2018-12-30T04:12:43.907Z,77.53
2018-12-30T04:15:12.546Z,77.53
2018-12-30T04:17:40.945Z,77.51
2018-12-30T04:20:09.331Z,77.55
2018-12-30T04:22:37.821Z,77.70
2018-12-30T04:25:06.280Z,77.78
2018-12-30T04:27:34.673Z,77.85
2018-12-30T04:30:03.240Z,77.86
2018-12-30T04:32:31.624Z,77.94
2018-12-30T04:35:00.023Z,78.01
2018-12-30T04:37:28.650Z,78.05
2018-12-30T04:39:57.118Z,78.18
2018-12-30T04:42:25.526Z,78.30
2018-12-30T04:44:54.089Z,78.34
2018-12-30T04:47:22.482Z,78.46
2018-12-30T04:49:50.868Z,78.45
2018-12-30T04:52:25.594Z,78.62
2018-12-30T04:54:49.439Z,78.59
2018-12-30T04:57:17.824Z,78.71
2018-12-30T04:59:46.386Z,78.74
2018-12-30T05:02:14.848Z,78.78
2018-12-30T05:04:43.246Z,78.87
2018-12-30T05:09:45.678Z,78.93
2018-12-30T05:12:14.070Z,78.91
2018-12-30T05:14:42.585Z,79.01
2018-12-30T05:17:10.978Z,79.03
2018-12-30T05:19:39.363Z,79.09
2018-12-30T05:22:07.859Z,79.06
2018-12-30T05:24:36.466Z,79.02
2018-12-30T05:27:04.882Z,79.03
2018-12-30T05:29:33.418Z,79.02
2018-12-30T05:32:01.772Z,78.99
2018-12-30T05:34:30.163Z,79.00
2018-12-30T05:36:58.686Z,79.02
2018-12-30T05:39:27.080Z,79.05
2018-12-30T05:41:55.481Z,79.05
2018-12-30T05:46:57.984Z,79.07
2018-12-30T05:49:26.485Z,79.04
2018-12-30T05:51:54.874Z,79.02
2018-12-30T05:54:23.264Z,79.01
2018-12-30T05:56:51.768Z,79.04
2018-12-30T05:59:20.159Z,79.10
2018-12-30T06:01:48.553Z,79.11
2018-12-30T06:04:17.045Z,79.06
2018-12-30T06:06:45.439Z,79.10
2018-12-30T06:09:13.831Z,79.22
2018-12-30T06:11:42.241Z,79.23
2018-12-30T06:14:10.629Z,79.28
2018-12-30T06:16:39.023Z,79.34
2018-12-30T06:19:07.600Z,79.36
2018-12-30T06:21:35.961Z,79.32
2018-12-30T06:24:04.355Z,79.37
2018-12-30T06:26:32.876Z,79.44
2018-12-30T06:29:01.271Z,79.39
2018-12-30T06:31:29.652Z,79.41
2018-12-30T06:36:32.648Z,79.40
2018-12-30T06:39:01.078Z,79.40
2018-12-30T06:41:29.476Z,79.48
2018-12-30T06:43:57.869Z,79.49
2018-12-30T06:46:26.326Z,79.48
2018-12-30T06:48:54.717Z,79.57
2018-12-30T06:51:23.108Z,79.61
2018-12-30T06:56:25.766Z,79.79
2018-12-30T06:58:54.187Z,79.80
2018-12-30T07:01:22.573Z,79.84
2018-12-30T07:03:50.966Z,79.83
2018-12-30T07:08:53.185Z,79.81
2018-12-30T07:13:55.883Z,79.83
2018-12-30T07:18:58.387Z,79.87
2018-12-30T07:24:00.879Z,79.85
2018-12-30T07:26:29.274Z,79.91
2018-12-30T07:28:57.791Z,79.95
2018-12-30T07:31:26.184Z,80.00
2018-12-30T07:33:54.578Z,80.01
2018-12-30T07:36:23.026Z,80.02
2018-12-30T07:38:51.391Z,80.00
2018-12-30T07:41:19.787Z,80.04
2018-12-30T07:43:48.200Z,80.05
2018-12-30T07:46:16.594Z,80.01
2018-12-30T07:48:45.090Z,79.99
2018-12-30T07:53:47.483Z,79.97
2018-12-30T07:56:16.005Z,79.94
2018-12-30T07:58:44.397Z,79.86
2018-12-30T08:01:12.793Z,79.88
2018-12-30T08:03:41.221Z,79.84
2018-12-30T08:06:09.604Z,79.87
2018-12-30T08:08:38.004Z,79.90
2018-12-30T08:11:06.456Z,79.94
2018-12-30T08:13:34.883Z,79.96
2018-12-30T08:16:03.296Z,79.95
2018-12-30T08:21:05.413Z,79.96
2018-12-30T08:26:07.583Z,79.93
2018-12-30T08:28:35.978Z,79.98
2018-12-30T08:31:04.482Z,79.99
2018-12-30T08:33:32.891Z,80.01
2018-12-30T08:36:01.287Z,80.05
2018-12-30T08:38:29.695Z,80.07
2018-12-30T08:40:58.089Z,80.10
2018-12-30T08:43:26.477Z,80.10
2018-12-30T08:45:55.020Z,80.07
2018-12-30T08:48:23.422Z,80.03
2018-12-30T08:50:51.846Z,80.02
2018-12-30T08:53:20.367Z,79.96
2018-12-30T08:55:48.762Z,80.05
2018-12-30T08:58:17.166Z,79.99
2018-12-30T09:00:45.728Z,79.92
2018-12-30T09:03:14.127Z,79.91
2018-12-30T09:05:42.530Z,79.91
2018-12-30T09:08:11.039Z,79.90
2018-12-30T09:10:39.435Z,79.92
2018-12-30T09:13:07.826Z,80.01
2018-12-30T09:15:36.255Z,80.02
2018-12-30T09:18:04.652Z,80.04
2018-12-30T09:20:33.039Z,80.08
2018-12-30T09:23:01.550Z,80.10
2018-12-30T09:25:29.961Z,80.02
2018-12-30T09:28:17.780Z,79.97
2018-12-30T09:30:46.168Z,79.89
2018-12-30T09:33:14.564Z,79.83
2018-12-30T09:38:16.752Z,79.75
2018-12-30T09:40:45.310Z,79.70
2018-12-30T09:43:13.762Z,79.68
2018-12-30T09:45:42.150Z,79.68
2018-12-30T09:48:10.540Z,79.67
2018-12-30T09:50:39.043Z,79.64
2018-12-30T09:53:07.433Z,79.61
2018-12-30T09:55:35.822Z,79.61
2018-12-30T10:00:38.226Z,79.60
2018-12-30T10:03:06.738Z,79.58
2018-12-30T10:05:35.128Z,79.60
2018-12-30T10:08:03.522Z,79.63
2018-12-30T10:10:31.934Z,79.65
2018-12-30T10:13:00.376Z,79.64
2018-12-30T10:15:28.725Z,79.69
2018-12-30T10:17:57.166Z,79.71
2018-12-30T10:20:25.558Z,79.68
2018-12-30T10:22:58.800Z,79.65
2018-12-30T10:25:24.092Z,79.65
2018-12-30T10:27:52.482Z,79.65
2018-12-30T10:30:20.875Z,79.66
2018-12-30T10:32:49.532Z,79.71
2018-12-30T10:35:17.921Z,79.79
2018-12-30T10:37:46.312Z,79.82
2018-12-30T10:40:14.746Z,79.80
2018-12-30T10:42:43.135Z,79.81
2018-12-30T10:45:11.530Z,79.81
2018-12-30T10:47:39.968Z,79.79
2018-12-30T10:50:08.499Z,79.72
2018-12-30T10:52:36.888Z,79.67
2018-12-30T10:55:05.534Z,79.63
2018-12-30T10:57:33.920Z,79.66
2018-12-30T11:00:02.303Z,79.73
2018-12-30T11:02:30.732Z,79.78
2018-12-30T11:04:59.126Z,79.80
2018-12-30T11:07:27.516Z,79.74
2018-12-30T11:09:56.016Z,79.69
2018-12-30T11:12:24.414Z,79.66
2018-12-30T11:14:52.807Z,79.71
2018-12-30T11:17:21.221Z,79.77
2018-12-30T11:19:49.615Z,79.84
2018-12-30T11:22:30.550Z,79.86
2018-12-30T11:24:58.952Z,79.91
2018-12-30T11:27:27.344Z,79.85
2018-12-30T11:29:55.944Z,79.85
2018-12-30T11:32:24.409Z,79.90
2018-12-30T11:34:52.804Z,79.86
2018-12-30T11:37:21.264Z,79.83
2018-12-30T11:39:49.723Z,79.81
2018-12-30T11:42:18.189Z,79.79
2018-12-30T11:44:46.709Z,79.76
2018-12-30T11:47:15.118Z,79.73
2018-12-30T11:49:43.519Z,79.69
2018-12-30T11:52:12.035Z,79.65
2018-12-30T11:54:40.433Z,79.57
2018-12-30T11:57:08.825Z,79.49
2018-12-30T11:59:37.424Z,79.48
2018-12-30T12:02:05.879Z,79.39
2018-12-30T12:04:34.282Z,79.40
2018-12-30T12:09:36.647Z,79.41
2018-12-30T12:12:05.120Z,79.36
2018-12-30T12:14:33.660Z,79.39
2018-12-30T12:22:25.574Z,79.12
2018-12-30T12:25:34.159Z,78.99
2018-12-30T12:30:51.658Z,78.82
2018-12-30T12:33:20.051Z,78.71
2018-12-30T12:35:48.440Z,78.73
2018-12-30T12:40:50.341Z,78.92
2018-12-30T12:43:20.842Z,78.96
2018-12-30T12:45:49.262Z,78.97
2018-12-30T12:48:17.668Z,78.97
2018-12-30T12:51:05.436Z,79.06
2018-12-30T12:53:33.931Z,79.05
2018-12-30T12:56:02.335Z,79.07
2018-12-30T13:01:04.689Z,79.05
2018-12-30T13:03:52.604Z,79.09
2018-12-30T13:06:21.202Z,79.16
2018-12-30T13:08:49.605Z,79.25
2018-12-30T13:13:52.586Z,79.41
2018-12-30T13:16:21.027Z,79.42
2018-12-30T13:19:09.027Z,79.39
2018-12-30T13:24:11.013Z,79.43
2018-12-30T13:26:51.602Z,79.42
2018-12-30T13:29:20.025Z,79.39
2018-12-30T13:31:48.431Z,79.33
2018-12-30T13:36:50.296Z,79.38
2018-12-30T13:39:18.686Z,79.36
2018-12-30T13:44:21.493Z,79.36
2018-12-30T13:49:23.787Z,79.29
2018-12-30T13:51:53.261Z,79.30
2018-12-30T13:54:22.418Z,79.30
2018-12-30T13:56:58.472Z,79.26
2018-12-30T14:02:00.686Z,79.30
2018-12-30T14:04:29.275Z,79.27
2018-12-30T14:09:33.752Z,79.11
2018-12-30T14:12:13.701Z,79.04
2018-12-30T14:14:32.341Z,79.00
2018-12-30T14:19:54.360Z,78.98
2018-12-30T14:22:22.800Z,78.89
2018-12-30T14:24:55.494Z,78.87
2018-12-30T14:27:23.139Z,78.72
2018-12-30T14:30:03.653Z,78.67
2018-12-30T14:32:32.054Z,78.71
2018-12-30T14:40:21.824Z,78.57
2018-12-30T14:42:50.227Z,78.52
2018-12-30T14:47:52.407Z,78.52
2018-12-30T14:50:20.939Z,78.44
2018-12-30T14:52:49.321Z,78.44
2018-12-30T14:55:17.720Z,78.39
2018-12-30T15:00:20.208Z,78.42
2018-12-30T15:02:48.632Z,78.40
2018-12-30T15:05:17.034Z,78.41
2018-12-30T15:07:45.432Z,78.40
2018-12-30T15:15:42.037Z,78.26
2018-12-30T15:20:44.822Z,78.17
2018-12-30T15:23:13.358Z,78.12
2018-12-30T15:25:41.806Z,78.07
2018-12-30T15:28:10.204Z,78.04
2018-12-30T15:33:12.586Z,77.94
2018-12-30T15:35:41.102Z,77.83
2018-12-30T15:38:09.507Z,77.84
2018-12-30T15:40:37.909Z,77.79
2018-12-30T15:43:06.331Z,77.75
2018-12-30T15:45:34.733Z,77.75
2018-12-30T15:48:03.162Z,77.67
2018-12-30T15:53:05.706Z,77.63
2018-12-30T15:55:34.153Z,77.60
2018-12-30T15:58:02.551Z,77.54
2018-12-30T16:00:30.945Z,77.51
2018-12-30T16:05:33.260Z,77.41
2018-12-30T16:08:01.704Z,77.40
2018-12-30T16:13:04.258Z,77.41
2018-12-30T16:18:06.199Z,77.33
2018-12-30T16:23:08.431Z,77.39
2018-12-30T16:28:13.170Z,77.28
2018-12-30T16:30:41.694Z,77.18
2018-12-30T16:33:10.094Z,77.10
2018-12-30T16:35:38.500Z,76.98
2018-12-30T16:40:41.488Z,76.78
2018-12-30T16:48:38.170Z,76.66
2018-12-30T16:51:06.574Z,76.66
2018-12-30T16:53:34.974Z,76.59
2018-12-30T16:58:37.859Z,76.62
2018-12-30T17:01:06.277Z,76.57
2018-12-30T17:03:34.747Z,76.46
2018-12-30T17:06:03.150Z,76.40
2018-12-30T17:08:31.595Z,76.24
2018-12-30T17:10:59.989Z,76.14
2018-12-30T17:13:28.381Z,76.04
2018-12-30T17:15:56.854Z,76.09
2018-12-30T17:18:25.250Z,76.01
2018-12-30T17:20:53.643Z,75.97
2018-12-30T17:25:55.697Z,75.86
2018-12-30T17:28:24.088Z,75.70
2018-12-30T17:33:26.572Z,75.69
2018-12-30T17:35:55.027Z,75.68
2018-12-30T17:38:23.669Z,75.65
2018-12-30T17:40:52.114Z,75.54
2018-12-30T17:43:20.707Z,75.43
2018-12-30T17:45:49.095Z,75.40
2018-12-30T17:48:17.502Z,75.36
2018-12-30T17:50:46.137Z,75.21
2018-12-30T17:53:14.625Z,75.13
2018-12-30T17:55:50.585Z,74.96
2018-12-30T17:58:13.327Z,74.94
2018-12-30T18:00:41.722Z,74.83
2018-12-30T18:03:10.127Z,74.77
2018-12-30T18:05:38.616Z,74.73
2018-12-30T18:08:07.107Z,74.73
2018-12-30T18:10:35.505Z,74.74
2018-12-30T18:13:06.508Z,74.72
2018-12-30T18:15:34.915Z,74.67
2018-12-30T18:18:03.324Z,74.53
2018-12-30T18:20:31.918Z,74.37
2018-12-30T18:23:00.370Z,74.25
2018-12-30T18:25:28.776Z,74.26
2018-12-30T18:27:57.333Z,74.27
2018-12-30T18:30:25.738Z,74.26
2018-12-30T18:32:54.132Z,74.26
2018-12-30T18:35:22.897Z,74.19
2018-12-30T18:37:51.282Z,74.21
2018-12-30T18:40:19.680Z,74.13
2018-12-30T18:42:48.448Z,74.05
2018-12-30T18:45:16.854Z,74.08
2018-12-30T18:47:45.240Z,74.09
2018-12-30T18:50:13.882Z,74.12
2018-12-30T18:52:42.278Z,74.10
2018-12-30T18:55:10.686Z,74.13
2018-12-30T18:57:39.430Z,74.15
2018-12-30T19:00:09.765Z,74.16
2018-12-30T19:02:38.170Z,74.10
2018-12-30T19:05:08.206Z,74.12
2018-12-30T19:07:36.602Z,74.05
2018-12-30T19:10:06.235Z,74.00
2018-12-30T19:12:34.904Z,74.00
2018-12-30T19:15:03.441Z,73.93
2018-12-30T19:17:31.839Z,73.88
2018-12-30T19:20:00.632Z,73.84
2018-12-30T19:22:29.031Z,73.87
2018-12-30T19:24:57.430Z,73.94
2018-12-30T19:27:26.118Z,74.02
2018-12-30T19:29:54.509Z,74.10
2018-12-30T19:32:22.959Z,74.20
2018-12-30T19:34:51.414Z,74.21
2018-12-30T19:37:19.810Z,74.21
2018-12-30T19:39:48.210Z,74.22
2018-12-30T19:42:16.998Z,74.17
2018-12-30T19:44:45.525Z,74.18
2018-12-30T19:47:13.882Z,74.18
2018-12-30T19:49:42.286Z,74.28
2018-12-30T19:52:10.683Z,74.27
2018-12-30T19:54:39.079Z,74.27
2018-12-30T19:57:07.679Z,74.24
2018-12-30T19:59:36.067Z,74.23
2018-12-30T20:02:04.679Z,74.19
2018-12-30T20:04:40.378Z,74.15
2018-12-30T20:07:03.547Z,74.11
2018-12-30T20:09:31.958Z,74.06
2018-12-30T20:12:00.509Z,74.06
2018-12-30T20:14:28.905Z,74.08
2018-12-30T20:16:57.305Z,74.10
2018-12-30T20:19:25.775Z,74.11
2018-12-30T20:21:54.175Z,74.11
2018-12-30T20:24:22.566Z,74.22
2018-12-30T20:26:51.189Z,74.16
2018-12-30T20:29:19.589Z,74.20
2018-12-30T20:31:48.093Z,74.18
2018-12-30T20:34:16.946Z,74.26
2018-12-30T20:36:45.350Z,74.30
2018-12-30T20:39:16.520Z,74.27
2018-12-30T20:41:45.162Z,74.29
2018-12-30T20:44:13.560Z,74.24
2018-12-30T20:46:41.967Z,74.28
2018-12-30T20:49:10.485Z,74.36
2018-12-30T20:51:38.883Z,74.42
2018-12-30T20:54:07.270Z,74.47
2018-12-30T20:56:37.846Z,74.52
2018-12-30T20:59:05.924Z,74.65
2018-12-30T21:01:34.333Z,74.76
2018-12-30T21:04:03.006Z,74.83
2018-12-30T21:06:31.405Z,74.90
2018-12-30T21:08:59.800Z,74.91
2018-12-30T21:11:28.560Z,75.05
2018-12-30T21:13:56.966Z,75.09
2018-12-30T21:16:25.365Z,75.05
2018-12-30T21:18:53.890Z,75.14
2018-12-30T21:21:22.296Z,75.17
2018-12-30T21:23:50.693Z,75.16
2018-12-30T21:26:19.154Z,75.25
2018-12-30T21:28:47.633Z,75.22
2018-12-30T21:31:16.032Z,75.25
2018-12-30T21:33:44.584Z,75.35
2018-12-30T21:36:12.993Z,75.40
2018-12-30T21:38:41.412Z,75.45
2018-12-30T21:41:09.927Z,75.42
2018-12-30T21:43:38.339Z,75.46
2018-12-30T21:46:06.722Z,75.47
2018-12-30T21:48:35.251Z,75.49
2018-12-30T21:51:03.661Z,75.53
2018-12-30T21:53:32.059Z,75.53
2018-12-30T21:56:00.629Z,75.58
2018-12-30T21:58:29.007Z,75.60
2018-12-30T22:00:57.405Z,75.63
2018-12-30T22:03:25.849Z,75.63
2018-12-30T22:05:54.306Z,75.69
2018-12-30T22:08:22.753Z,75.72
2018-12-30T22:10:51.579Z,75.82
2018-12-30T22:13:19.977Z,75.89
2018-12-30T22:15:48.388Z,76.04
2018-12-30T22:18:16.926Z,76.18
2018-12-30T22:20:45.328Z,76.27
2018-12-30T22:23:13.753Z,76.50
2018-12-30T22:25:42.366Z,76.61
2018-12-30T22:28:10.769Z,76.77
2018-12-30T22:30:39.187Z,76.90
2018-12-30T22:33:07.904Z,77.07
2018-12-30T22:35:36.373Z,77.23
2018-12-30T22:38:04.772Z,77.32
2018-12-30T22:40:33.195Z,77.40
2018-12-30T22:43:01.681Z,77.50
2018-12-30T22:45:30.150Z,77.65
2018-12-30T22:47:58.800Z,77.71
2018-12-30T22:50:27.205Z,77.79
2018-12-30T22:52:55.608Z,77.86
2018-12-30T22:55:24.240Z,77.96
2018-12-30T22:57:52.635Z,78.08
2018-12-30T23:00:23.042Z,78.15
2018-12-30T23:02:51.868Z,78.26
2018-12-30T23:05:20.458Z,78.31
2018-12-30T23:07:48.898Z,78.41
2018-12-30T23:10:17.484Z,78.41
2018-12-30T23:12:45.881Z,78.48
2018-12-30T23:15:14.394Z,78.51
2018-12-30T23:17:42.841Z,78.59
2018-12-30T23:20:11.334Z,78.64
2018-12-30T23:22:39.732Z,78.72
2018-12-30T23:25:08.560Z,78.80
2018-12-30T23:27:36.960Z,78.82
2018-12-30T23:30:07.306Z,78.82
2018-12-30T23:32:36.059Z,78.78
2018-12-30T23:35:04.634Z,78.71
2018-12-30T23:37:33.022Z,78.76
2018-12-30T23:40:01.615Z,78.83
2018-12-30T23:42:30.000Z,78.85
2018-12-30T23:44:58.407Z,78.87
2018-12-30T23:47:26.822Z,78.93
2018-12-30T23:49:55.213Z,78.96
2018-12-30T23:52:23.606Z,78.96
2018-12-30T23:54:52.177Z,79.02
2018-12-30T23:57:20.566Z,79.00
2018-12-30T23:59:48.963Z,79.04
